sensor_id;sensor_type;location;lat;lon;timestamp;P1;durP1;ratioP1;P2;durP2;ratioP2
56631;SDS011;42503;39.928;-75.152;2023-09-19T00:09:11;2.22;;;1.90;;
56631;SDS011;42503;39.928;-75.152;2023-09-19T00:19:12;2.60;;;1.70;;
56631;SDS011;42503;39.928;-75.152;2023-09-19T00:29:15;3.17;;;1.70;;
56631;SDS011;42503;39.928;-75.152;2023-09-19T00:39:17;2.20;;;2.00;;
56631;SDS011;42503;39.928;-75.152;2023-09-19T00:49:21;3.03;;;1.90;;
56631;SDS011;42503;39.928;-75.152;2023-09-19T00:59:23;2.33;;;2.08;;
56631;SDS011;42503;39.928;-75.152;2023-09-19T01:09:24;2.85;;;2.10;;
56631;SDS011;42503;39.928;-75.152;2023-09-19T01:29:49;5.07;;;1.80;;
56631;SDS011;42503;39.928;-75.152;2023-09-19T01:39:52;2.78;;;2.28;;
56631;SDS011;42503;39.928;-75.152;2023-09-19T02:00:41;5.65;;;4.13;;
56631;SDS011;42503;39.928;-75.152;2023-09-19T02:10:45;6.65;;;4.90;;
56631;SDS011;42503;39.928;-75.152;2023-09-19T02:20:49;8.43;;;6.40;;
56631;SDS011;42503;39.928;-75.152;2023-09-19T02:30:52;10.18;;;8.40;;
56631;SDS011;42503;39.928;-75.152;2023-09-19T02:40:53;13.45;;;8.55;;
56631;SDS011;42503;39.928;-75.152;2023-09-19T02:50:55;14.50;;;9.52;;
56631;SDS011;42503;39.928;-75.152;2023-09-19T03:00:57;15.25;;;11.07;;
56631;SDS011;42503;39.928;-75.152;2023-09-19T03:10:58;16.10;;;11.27;;
56631;SDS011;42503;39.928;-75.152;2023-09-19T03:21:01;17.52;;;11.27;;
56631;SDS011;42503;39.928;-75.152;2023-09-19T03:31:06;16.70;;;11.05;;
56631;SDS011;42503;39.928;-75.152;2023-09-19T03:41:08;18.60;;;12.27;;
56631;SDS011;42503;39.928;-75.152;2023-09-19T03:51:10;13.07;;;10.68;;
56631;SDS011;42503;39.928;-75.152;2023-09-19T04:01:11;16.00;;;11.90;;
56631;SDS011;42503;39.928;-75.152;2023-09-19T04:11:17;21.25;;;11.93;;
56631;SDS011;42503;39.928;-75.152;2023-09-19T04:21:18;15.25;;;11.15;;
56631;SDS011;42503;39.928;-75.152;2023-09-19T04:31:20;18.15;;;11.52;;
56631;SDS011;42503;39.928;-75.152;2023-09-19T04:41:22;14.88;;;10.68;;
56631;SDS011;42503;39.928;-75.152;2023-09-19T04:51:25;14.35;;;11.23;;
56631;SDS011;42503;39.928;-75.152;2023-09-19T05:01:29;15.45;;;11.00;;
56631;SDS011;42503;39.928;-75.152;2023-09-19T05:11:32;14.10;;;10.15;;
56631;SDS011;42503;39.928;-75.152;2023-09-19T05:21:33;15.63;;;10.32;;
56631;SDS011;42503;39.928;-75.152;2023-09-19T05:31:35;12.13;;;9.40;;
56631;SDS011;42503;39.928;-75.152;2023-09-19T05:41:41;13.57;;;10.40;;
56631;SDS011;42503;39.928;-75.152;2023-09-19T05:51:43;13.23;;;9.55;;
56631;SDS011;42503;39.928;-75.152;2023-09-19T06:01:44;13.57;;;9.70;;
56631;SDS011;42503;39.928;-75.152;2023-09-19T06:11:46;13.65;;;9.68;;
56631;SDS011;42503;39.928;-75.152;2023-09-19T06:21:49;14.57;;;9.80;;
56631;SDS011;42503;39.928;-75.152;2023-09-19T06:31:50;10.90;;;8.93;;
56631;SDS011;42503;39.928;-75.152;2023-09-19T06:41:52;13.00;;;9.10;;
56631;SDS011;42503;39.928;-75.152;2023-09-19T06:51:58;11.40;;;8.73;;
56631;SDS011;42503;39.928;-75.152;2023-09-19T07:02:01;9.65;;;8.38;;
56631;SDS011;42503;39.928;-75.152;2023-09-19T07:12:03;11.05;;;8.00;;
56631;SDS011;42503;39.928;-75.152;2023-09-19T07:22:05;10.65;;;7.43;;
56631;SDS011;42503;39.928;-75.152;2023-09-19T07:32:08;9.90;;;7.90;;
56631;SDS011;42503;39.928;-75.152;2023-09-19T07:42:10;10.43;;;7.82;;
56631;SDS011;42503;39.928;-75.152;2023-09-19T07:52:18;10.35;;;7.40;;
56631;SDS011;42503;39.928;-75.152;2023-09-19T08:02:19;8.30;;;7.28;;
56631;SDS011;42503;39.928;-75.152;2023-09-19T08:12:22;7.85;;;6.68;;
56631;SDS011;42503;39.928;-75.152;2023-09-19T08:22:26;8.75;;;6.80;;
56631;SDS011;42503;39.928;-75.152;2023-09-19T08:32:28;9.10;;;6.38;;
56631;SDS011;42503;39.928;-75.152;2023-09-19T08:42:29;7.95;;;6.60;;
56631;SDS011;42503;39.928;-75.152;2023-09-19T08:52:37;7.40;;;6.32;;
56631;SDS011;42503;39.928;-75.152;2023-09-19T09:02:44;6.45;;;5.70;;
56631;SDS011;42503;39.928;-75.152;2023-09-19T09:13:07;6.57;;;5.78;;
56631;SDS011;42503;39.928;-75.152;2023-09-19T09:23:10;6.57;;;5.70;;
56631;SDS011;42503;39.928;-75.152;2023-09-19T09:33:12;6.13;;;5.53;;
56631;SDS011;42503;39.928;-75.152;2023-09-19T09:43:25;5.95;;;5.28;;
56631;SDS011;42503;39.928;-75.152;2023-09-19T09:53:29;6.78;;;5.95;;
56631;SDS011;42503;39.928;-75.152;2023-09-19T10:03:34;6.20;;;5.32;;
56631;SDS011;42503;39.928;-75.152;2023-09-19T10:13:40;5.90;;;5.23;;
56631;SDS011;42503;39.928;-75.152;2023-09-19T10:23:42;6.45;;;5.40;;
56631;SDS011;42503;39.928;-75.152;2023-09-19T10:33:46;5.55;;;5.00;;
56631;SDS011;42503;39.928;-75.152;2023-09-19T10:43:50;5.28;;;4.78;;
56631;SDS011;42503;39.928;-75.152;2023-09-19T10:54:17;6.70;;;5.13;;
56631;SDS011;42503;39.928;-75.152;2023-09-19T11:14:37;6.53;;;4.90;;
56631;SDS011;42503;39.928;-75.152;2023-09-19T11:24:40;5.32;;;4.70;;
56631;SDS011;42503;39.928;-75.152;2023-09-19T11:34:43;6.68;;;5.30;;
56631;SDS011;42503;39.928;-75.152;2023-09-19T11:45:47;7.30;;;4.60;;
56631;SDS011;42503;39.928;-75.152;2023-09-19T11:55:48;8.95;;;4.90;;
56631;SDS011;42503;39.928;-75.152;2023-09-19T12:05:49;8.90;;;5.13;;
56631;SDS011;42503;39.928;-75.152;2023-09-19T12:15:51;8.55;;;5.35;;
56631;SDS011;42503;39.928;-75.152;2023-09-19T12:25:52;6.03;;;4.78;;
56631;SDS011;42503;39.928;-75.152;2023-09-19T12:35:57;6.85;;;4.95;;
56631;SDS011;42503;39.928;-75.152;2023-09-19T12:45:59;8.68;;;5.03;;
56631;SDS011;42503;39.928;-75.152;2023-09-19T12:56:05;6.00;;;4.57;;
56631;SDS011;42503;39.928;-75.152;2023-09-19T13:06:09;5.68;;;4.68;;
56631;SDS011;42503;39.928;-75.152;2023-09-19T13:16:11;6.30;;;4.47;;
56631;SDS011;42503;39.928;-75.152;2023-09-19T13:26:15;6.68;;;5.00;;
56631;SDS011;42503;39.928;-75.152;2023-09-19T13:36:17;6.00;;;5.32;;
56631;SDS011;42503;39.928;-75.152;2023-09-19T13:46:19;5.13;;;4.57;;
56631;SDS011;42503;39.928;-75.152;2023-09-19T13:56:29;5.20;;;3.87;;
56631;SDS011;42503;39.928;-75.152;2023-09-19T14:06:31;5.68;;;4.35;;
56631;SDS011;42503;39.928;-75.152;2023-09-19T14:16:34;5.10;;;4.60;;
56631;SDS011;42503;39.928;-75.152;2023-09-19T14:26:35;5.00;;;4.50;;
56631;SDS011;42503;39.928;-75.152;2023-09-19T14:36:37;6.15;;;4.15;;
56631;SDS011;42503;39.928;-75.152;2023-09-19T14:46:44;5.15;;;4.30;;
56631;SDS011;42503;39.928;-75.152;2023-09-19T14:56:46;4.50;;;3.90;;
56631;SDS011;42503;39.928;-75.152;2023-09-19T15:06:54;5.03;;;4.30;;
56631;SDS011;42503;39.928;-75.152;2023-09-19T15:16:55;3.92;;;3.53;;
56631;SDS011;42503;39.928;-75.152;2023-09-19T15:26:57;4.40;;;3.80;;
56631;SDS011;42503;39.928;-75.152;2023-09-19T15:36:58;4.18;;;3.78;;
56631;SDS011;42503;39.928;-75.152;2023-09-19T15:47:03;4.22;;;3.60;;
56631;SDS011;42503;39.928;-75.152;2023-09-19T15:57:05;3.67;;;3.35;;
56631;SDS011;42503;39.928;-75.152;2023-09-19T16:07:07;5.47;;;4.18;;
56631;SDS011;42503;39.928;-75.152;2023-09-19T16:17:08;4.55;;;3.55;;
56631;SDS011;42503;39.928;-75.152;2023-09-19T16:27:11;4.05;;;3.65;;
56631;SDS011;42503;39.928;-75.152;2023-09-19T16:37:12;4.40;;;3.63;;
56631;SDS011;42503;39.928;-75.152;2023-09-19T16:47:15;3.67;;;3.20;;
56631;SDS011;42503;39.928;-75.152;2023-09-19T16:57:16;3.97;;;3.33;;
56631;SDS011;42503;39.928;-75.152;2023-09-19T17:07:18;3.88;;;3.15;;
56631;SDS011;42503;39.928;-75.152;2023-09-19T17:17:23;3.83;;;3.47;;
56631;SDS011;42503;39.928;-75.152;2023-09-19T17:27:24;3.58;;;3.28;;
56631;SDS011;42503;39.928;-75.152;2023-09-19T17:37:26;4.07;;;3.08;;
56631;SDS011;42503;39.928;-75.152;2023-09-19T17:47:27;4.05;;;3.00;;
56631;SDS011;42503;39.928;-75.152;2023-09-19T17:57:29;3.35;;;2.90;;
56631;SDS011;42503;39.928;-75.152;2023-09-19T18:07:31;3.70;;;3.30;;
56631;SDS011;42503;39.928;-75.152;2023-09-19T18:17:33;4.22;;;3.10;;
56631;SDS011;42503;39.928;-75.152;2023-09-19T18:27:44;3.20;;;3.00;;
56631;SDS011;42503;39.928;-75.152;2023-09-19T18:37:45;3.75;;;3.10;;
56631;SDS011;42503;39.928;-75.152;2023-09-19T18:47:47;3.10;;;2.78;;
56631;SDS011;42503;39.928;-75.152;2023-09-19T18:57:51;3.28;;;2.83;;
56631;SDS011;42503;39.928;-75.152;2023-09-19T19:07:53;3.17;;;2.88;;
56631;SDS011;42503;39.928;-75.152;2023-09-19T19:17:57;3.45;;;3.15;;
56631;SDS011;42503;39.928;-75.152;2023-09-19T19:27:59;3.45;;;2.90;;
56631;SDS011;42503;39.928;-75.152;2023-09-19T19:38:00;2.95;;;2.63;;
56631;SDS011;42503;39.928;-75.152;2023-09-19T19:48:03;3.67;;;2.90;;
56631;SDS011;42503;39.928;-75.152;2023-09-19T19:58:04;2.60;;;2.40;;
56631;SDS011;42503;39.928;-75.152;2023-09-19T20:08:07;3.97;;;3.10;;
56631;SDS011;42503;39.928;-75.152;2023-09-19T20:18:12;3.33;;;2.78;;
56631;SDS011;42503;39.928;-75.152;2023-09-19T20:28:14;3.28;;;2.45;;
56631;SDS011;42503;39.928;-75.152;2023-09-19T20:38:17;2.70;;;2.50;;
56631;SDS011;42503;39.928;-75.152;2023-09-19T20:48:19;3.10;;;2.63;;
56631;SDS011;42503;39.928;-75.152;2023-09-19T20:58:21;2.60;;;2.40;;
56631;SDS011;42503;39.928;-75.152;2023-09-19T21:08:22;2.78;;;2.55;;
56631;SDS011;42503;39.928;-75.152;2023-09-19T21:18:26;2.78;;;2.25;;
56631;SDS011;42503;39.928;-75.152;2023-09-19T21:28:28;3.00;;;2.33;;
56631;SDS011;42503;39.928;-75.152;2023-09-19T21:38:29;4.88;;;2.95;;
56631;SDS011;42503;39.928;-75.152;2023-09-19T21:48:32;2.88;;;2.55;;
56631;SDS011;42503;39.928;-75.152;2023-09-19T21:58:34;5.13;;;2.80;;
56631;SDS011;42503;39.928;-75.152;2023-09-19T22:08:39;3.40;;;2.65;;
56631;SDS011;42503;39.928;-75.152;2023-09-19T22:18:41;3.25;;;2.50;;
56631;SDS011;42503;39.928;-75.152;2023-09-19T22:28:53;3.35;;;3.05;;
56631;SDS011;42503;39.928;-75.152;2023-09-19T22:38:55;3.85;;;2.85;;
56631;SDS011;42503;39.928;-75.152;2023-09-19T22:49:01;3.20;;;2.65;;
56631;SDS011;42503;39.928;-75.152;2023-09-19T22:59:03;4.07;;;2.58;;
56631;SDS011;42503;39.928;-75.152;2023-09-19T23:09:05;3.20;;;2.90;;
56631;SDS011;42503;39.928;-75.152;2023-09-19T23:19:09;3.42;;;2.50;;
56631;SDS011;42503;39.928;-75.152;2023-09-19T23:29:23;3.10;;;2.80;;
56631;SDS011;42503;39.928;-75.152;2023-09-19T23:39:25;2.80;;;2.60;;
56631;SDS011;42503;39.928;-75.152;2023-09-19T23:49:26;4.05;;;2.65;;
56631;SDS011;42503;39.928;-75.152;2023-09-19T23:59:32;2.72;;;2.30;;
